createdAt,value
2023-04-08T00:00:48.267Z,11.50
2023-04-08T00:03:38.234Z,14.05
2023-04-08T00:06:27.342Z,12.40
2023-04-08T00:09:15.851Z,11.27
2023-04-08T00:12:04.327Z,12.57
2023-04-08T00:14:52.758Z,10.50
2023-04-08T00:17:41.642Z,11.90
2023-04-08T00:20:31.532Z,10.35
2023-04-08T00:23:21.370Z,9.85
2023-04-08T00:26:09.807Z,9.75
2023-04-08T00:28:58.259Z,10.15
2023-04-08T00:31:46.636Z,8.32
2023-04-08T00:34:35.092Z,7.55
2023-04-08T00:37:25.794Z,8.43
2023-04-08T00:40:14.199Z,10.80
2023-04-08T00:43:02.702Z,8.73
2023-04-08T00:45:51.386Z,9.25
2023-04-08T00:48:39.923Z,8.52
2023-04-08T00:51:28.400Z,8.48
2023-04-08T00:54:18.167Z,8.30
2023-04-08T00:57:07.301Z,8.18
2023-04-08T00:59:55.875Z,8.02
2023-04-08T01:02:49.109Z,7.32
2023-04-08T01:05:47.092Z,8.48
2023-04-08T01:08:37.815Z,7.72
2023-04-08T01:11:30.520Z,6.85
2023-04-08T01:14:22.665Z,7.53
2023-04-08T01:17:11.833Z,7.53
2023-04-08T01:20:01.996Z,7.32
2023-04-08T01:23:22.024Z,6.80
2023-04-08T01:26:13.284Z,8.00
2023-04-08T01:29:04.323Z,7.00
2023-04-08T01:31:54.439Z,6.82
2023-04-08T01:34:44.175Z,5.95
2023-04-08T01:37:34.105Z,5.93
2023-04-08T01:40:22.682Z,6.57
2023-04-08T01:43:15.647Z,7.18
2023-04-08T01:46:04.202Z,6.53
2023-04-08T01:48:53.551Z,6.50
2023-04-08T01:51:42.765Z,6.85
2023-04-08T01:54:31.304Z,6.97
2023-04-08T01:57:25.579Z,6.53
2023-04-08T02:00:16.898Z,5.90
2023-04-08T02:03:08.045Z,7.00
2023-04-08T02:05:56.651Z,6.45
2023-04-08T02:08:46.042Z,6.22
2023-04-08T02:11:34.451Z,5.70
2023-04-08T02:14:23.011Z,5.45
2023-04-08T02:17:15.751Z,5.90
2023-04-08T02:20:08.657Z,5.97
2023-04-08T02:23:03.438Z,5.78
2023-04-08T02:25:54.171Z,7.60
2023-04-08T02:28:43.309Z,8.18
2023-04-08T02:31:32.269Z,7.25
2023-04-08T02:34:23.447Z,8.50
2023-04-08T02:37:12.111Z,7.53
2023-04-08T02:40:00.956Z,8.00
2023-04-08T02:42:49.443Z,8.60
2023-04-08T02:45:42.766Z,9.25
2023-04-08T02:48:31.393Z,9.57
2023-04-08T02:51:21.571Z,9.68
2023-04-08T02:54:09.984Z,9.55
2023-04-08T02:56:58.439Z,10.68
2023-04-08T02:59:46.878Z,10.35
2023-04-08T03:02:35.723Z,11.18
2023-04-08T03:05:24.360Z,11.30
2023-04-08T03:08:14.178Z,10.00
2023-04-08T03:11:02.948Z,11.57
2023-04-08T03:13:51.473Z,10.57
2023-04-08T03:16:39.888Z,11.20
2023-04-08T03:19:28.344Z,10.67
2023-04-08T03:22:16.804Z,11.20
2023-04-08T03:25:07.590Z,11.40
2023-04-08T03:27:56.124Z,11.18
2023-04-08T03:30:44.790Z,10.80
2023-04-08T03:33:33.662Z,10.80
2023-04-08T03:36:22.135Z,11.23
2023-04-08T03:39:10.976Z,10.90
2023-04-08T03:42:01.225Z,10.57
2023-04-08T03:44:49.645Z,11.55
2023-04-08T03:47:38.076Z,10.85
2023-04-08T03:50:26.512Z,9.57
2023-04-08T03:53:15.160Z,8.63
2023-04-08T03:56:04.576Z,10.15
2023-04-08T03:58:54.444Z,10.75
2023-04-08T04:01:42.879Z,10.50
2023-04-08T04:04:31.343Z,9.85
2023-04-08T04:07:19.828Z,9.25
2023-04-08T04:10:10.410Z,11.05
2023-04-08T04:12:58.884Z,9.60
2023-04-08T04:15:48.684Z,10.38
2023-04-08T04:18:37.153Z,8.85
2023-04-08T04:21:25.603Z,8.90
2023-04-08T04:24:14.578Z,8.52
2023-04-08T04:27:03.210Z,8.45
2023-04-08T04:29:51.637Z,8.00
2023-04-08T04:32:41.601Z,8.68
2023-04-08T04:35:30.088Z,8.32
2023-04-08T04:38:18.537Z,8.82
2023-04-08T04:41:07.079Z,8.13
2023-04-08T04:43:55.496Z,8.20
2023-04-08T04:46:44.003Z,8.15
2023-04-08T04:49:33.804Z,8.95
2023-04-08T04:52:22.287Z,9.02
2023-04-08T04:55:11.798Z,7.77
2023-04-08T04:58:00.298Z,8.40
2023-04-08T05:00:48.695Z,8.30
2023-04-08T05:03:37.164Z,8.27
2023-04-08T05:06:27.639Z,8.65
2023-04-08T05:09:16.098Z,10.68
2023-04-08T05:12:04.638Z,9.38
2023-04-08T05:14:53.047Z,8.55
2023-04-08T05:17:41.521Z,8.57
2023-04-08T05:20:30.292Z,9.57
2023-04-08T05:23:20.387Z,9.80
2023-04-08T05:26:09.751Z,10.00
2023-04-08T05:28:58.473Z,9.38
2023-04-08T05:31:47.035Z,8.57
2023-04-08T05:34:35.638Z,9.18
2023-04-08T05:37:24.093Z,8.57
2023-04-08T05:40:14.243Z,8.60
2023-04-08T05:43:02.682Z,9.65
2023-04-08T05:45:51.285Z,9.00
2023-04-08T05:48:39.703Z,10.45
2023-04-08T05:51:28.219Z,9.48
2023-04-08T05:54:16.695Z,10.00
2023-04-08T05:57:08.106Z,9.95
2023-04-08T05:59:57.632Z,10.20
2023-04-08T06:02:46.276Z,11.45
2023-04-08T06:05:34.932Z,10.63
2023-04-08T06:08:23.705Z,11.00
2023-04-08T06:11:12.238Z,11.25
2023-04-08T06:14:02.055Z,11.27
2023-04-08T06:16:50.555Z,11.02
2023-04-08T06:19:39.069Z,10.97
2023-04-08T06:22:27.563Z,12.68
2023-04-08T06:25:16.042Z,11.75
2023-04-08T06:28:04.524Z,11.80
2023-04-08T06:30:54.286Z,12.52
2023-04-08T06:33:42.846Z,11.68
2023-04-08T06:36:31.633Z,13.55
2023-04-08T06:39:21.627Z,11.48
2023-04-08T06:42:10.106Z,13.03
2023-04-08T06:44:58.679Z,12.88
2023-04-08T06:47:48.517Z,11.45
2023-04-08T06:50:37.135Z,13.18
2023-04-08T06:53:25.764Z,12.30
2023-04-08T06:56:14.179Z,10.93
2023-04-08T06:59:03.169Z,12.93
2023-04-08T07:01:51.788Z,12.30
2023-04-08T07:04:41.787Z,11.63
2023-04-08T07:07:30.292Z,12.67
2023-04-08T07:10:18.815Z,13.73
2023-04-08T07:13:07.339Z,13.65
2023-04-08T07:15:55.746Z,15.57
2023-04-08T07:18:44.244Z,12.98
2023-04-08T07:21:34.070Z,15.70
2023-04-08T07:24:22.498Z,15.75
2023-04-08T07:27:11.030Z,16.02
2023-04-08T07:29:59.557Z,16.40
2023-04-08T07:32:48.097Z,18.58
2023-04-08T07:35:36.626Z,16.05
2023-04-08T07:38:26.571Z,16.15
2023-04-08T07:41:15.025Z,21.33
2023-04-08T07:44:03.466Z,17.30
2023-04-08T07:46:52.010Z,21.10
2023-04-08T07:49:40.614Z,21.75
2023-04-08T07:52:29.086Z,21.55
2023-04-08T07:55:19.015Z,21.08
2023-04-08T07:58:07.575Z,22.38
2023-04-08T08:00:57.342Z,21.92
2023-04-08T08:03:46.187Z,21.27
2023-04-08T08:06:34.753Z,20.48
2023-04-08T08:09:23.215Z,19.85
2023-04-08T08:12:13.082Z,20.45
2023-04-08T08:15:01.525Z,20.63
2023-04-08T08:17:49.978Z,19.02
2023-04-08T08:20:38.452Z,17.55
2023-04-08T08:23:27.219Z,16.77
2023-04-08T08:26:15.894Z,15.75
2023-04-08T08:29:06.507Z,16.60
2023-04-08T08:31:54.901Z,16.13
2023-04-08T08:34:43.293Z,21.80
2023-04-08T08:37:31.712Z,17.27
2023-04-08T08:40:20.514Z,21.73
2023-04-08T08:43:08.971Z,19.77
2023-04-08T08:45:59.464Z,16.13
2023-04-08T08:48:48.064Z,17.50
2023-04-08T08:51:37.152Z,15.85
2023-04-08T08:54:26.208Z,18.23
2023-04-08T08:57:23.649Z,16.27
2023-04-08T09:00:16.070Z,14.75
2023-04-08T09:03:22.985Z,16.17
2023-04-08T09:06:12.751Z,16.92
2023-04-08T09:09:02.790Z,16.75
2023-04-08T09:11:51.364Z,15.00
2023-04-08T09:14:39.894Z,15.75
2023-04-08T09:17:35.377Z,18.03
2023-04-08T09:20:25.375Z,16.70
2023-04-08T09:23:13.866Z,17.57
2023-04-08T09:26:09.323Z,13.70
2023-04-08T09:29:08.453Z,15.90
2023-04-08T09:32:03.622Z,21.30
2023-04-08T09:34:52.244Z,16.52
2023-04-08T09:37:42.332Z,16.80
2023-04-08T09:40:35.022Z,15.27
2023-04-08T09:43:26.386Z,13.90
2023-04-08T09:46:15.249Z,12.83
2023-04-08T09:49:07.475Z,17.83
2023-04-08T09:52:05.335Z,14.95
2023-04-08T09:55:03.169Z,16.20
2023-04-08T09:57:56.740Z,17.67
2023-04-08T10:00:50.738Z,20.43
2023-04-08T10:03:46.795Z,17.37
2023-04-08T10:06:37.075Z,13.65
2023-04-08T10:09:25.844Z,14.23
2023-04-08T10:12:16.194Z,10.75
2023-04-08T10:15:28.901Z,11.10
2023-04-08T10:18:38.386Z,12.02
2023-04-08T10:21:43.734Z,11.52
2023-04-08T10:24:32.182Z,13.05
2023-04-08T10:27:41.294Z,15.50
2023-04-08T10:30:43.233Z,14.02
2023-04-08T10:33:37.257Z,13.20
2023-04-08T10:36:28.108Z,14.15
2023-04-08T10:39:17.441Z,13.82
2023-04-08T10:42:09.446Z,12.68
2023-04-08T10:45:03.403Z,11.77
2023-04-08T10:47:52.197Z,13.98
2023-04-08T10:50:41.286Z,9.55
2023-04-08T10:53:30.771Z,11.60
2023-04-08T10:56:19.658Z,10.80
2023-04-08T10:59:08.143Z,12.32
2023-04-08T11:01:58.597Z,10.65
2023-04-08T11:04:48.365Z,11.05
2023-04-08T11:07:42.094Z,12.85
2023-04-08T11:10:32.037Z,13.25
2023-04-08T11:13:20.782Z,13.25
2023-04-08T11:16:17.725Z,11.20
2023-04-08T11:19:08.973Z,11.55
2023-04-08T11:21:57.567Z,14.67
2023-04-08T11:24:46.258Z,11.20
2023-04-08T11:27:35.882Z,11.23
2023-04-08T11:30:25.189Z,9.37
2023-04-08T11:33:15.118Z,8.73
2023-04-08T11:36:05.629Z,10.20
2023-04-08T11:38:55.541Z,12.25
2023-04-08T11:41:44.545Z,10.90
2023-04-08T11:44:33.793Z,10.40
2023-04-08T11:47:22.319Z,9.35
2023-04-08T11:50:11.438Z,10.97
2023-04-08T11:53:01.259Z,9.00
2023-04-08T11:55:50.355Z,7.78
2023-04-08T11:58:38.805Z,8.60
2023-04-08T12:01:28.441Z,7.27
2023-04-08T12:04:16.968Z,11.00
2023-04-08T12:07:05.534Z,6.70
2023-04-08T12:09:55.610Z,9.38
2023-04-08T12:12:44.029Z,6.43
2023-04-08T12:15:32.842Z,15.93
2023-04-08T12:18:21.401Z,10.65
2023-04-08T12:21:09.865Z,8.25
2023-04-08T12:23:58.316Z,8.50
2023-04-08T12:26:48.104Z,8.80
2023-04-08T12:29:36.561Z,9.02
2023-04-08T12:32:25.614Z,7.80
2023-04-08T12:35:15.031Z,8.02
2023-04-08T12:38:03.611Z,6.78
2023-04-08T12:40:52.144Z,9.70
2023-04-08T12:43:42.048Z,7.03
2023-04-08T12:46:30.651Z,10.32
2023-04-08T12:49:19.111Z,5.95
2023-04-08T12:52:07.572Z,7.72
2023-04-08T12:54:56.104Z,8.98
2023-04-08T12:57:44.572Z,7.70
2023-04-08T13:00:34.507Z,9.98
2023-04-08T13:03:23.036Z,12.20
2023-04-08T13:06:12.091Z,8.30
2023-04-08T13:09:00.790Z,8.27
2023-04-08T13:11:49.545Z,11.23
2023-04-08T13:14:38.337Z,7.20
2023-04-08T13:17:28.352Z,9.65
2023-04-08T13:20:16.938Z,10.95
2023-04-08T13:23:05.795Z,10.85
2023-04-08T13:25:54.325Z,7.57
2023-04-08T13:28:55.973Z,10.20
2023-04-08T13:31:46.115Z,9.20
2023-04-08T13:34:36.061Z,9.00
2023-04-08T13:37:24.573Z,9.25
2023-04-08T13:40:13.371Z,7.43
2023-04-08T13:43:02.268Z,7.07
2023-04-08T13:45:50.698Z,10.35
2023-04-08T13:48:39.220Z,10.20
2023-04-08T13:51:29.067Z,6.97
2023-04-08T13:54:17.516Z,5.55
2023-04-08T13:57:06.180Z,8.07
2023-04-08T13:59:54.879Z,7.90
2023-04-08T14:02:43.544Z,6.25
2023-04-08T14:05:32.139Z,5.78
2023-04-08T14:08:25.533Z,6.50
2023-04-08T14:11:14.321Z,9.20
2023-04-08T14:14:02.812Z,6.95
2023-04-08T14:16:51.328Z,5.80
2023-04-08T14:19:39.885Z,5.88
2023-04-08T14:22:28.313Z,8.60
2023-04-08T14:25:18.317Z,7.32
2023-04-08T14:28:07.349Z,7.93
2023-04-08T14:30:56.145Z,9.45
2023-04-08T14:33:44.995Z,6.55
2023-04-08T14:36:33.822Z,8.98
2023-04-08T14:39:22.784Z,7.88
2023-04-08T14:42:12.662Z,7.30
2023-04-08T14:45:01.526Z,7.15
2023-04-08T14:47:50.069Z,6.90
2023-04-08T14:50:38.598Z,7.90
2023-04-08T14:53:27.287Z,7.95
2023-04-08T14:56:15.725Z,8.70
2023-04-08T14:59:06.008Z,6.75
2023-04-08T15:01:54.490Z,14.25
2023-04-08T15:04:42.967Z,9.38
2023-04-08T15:07:31.987Z,9.65
2023-04-08T15:10:20.577Z,8.90
2023-04-08T15:13:09.172Z,9.18
2023-04-08T15:15:59.114Z,7.93
2023-04-08T15:18:47.872Z,8.57
2023-04-08T15:21:36.283Z,7.63
2023-04-08T15:24:24.774Z,7.72
2023-04-08T15:27:13.173Z,7.72
2023-04-08T15:30:02.217Z,7.85
2023-04-08T15:32:52.654Z,5.60
2023-04-08T15:35:41.189Z,7.60
2023-04-08T15:38:29.744Z,8.07
2023-04-08T15:41:19.220Z,7.13
2023-04-08T15:44:07.701Z,7.20
2023-04-08T15:46:56.630Z,7.22
2023-04-08T15:49:46.892Z,5.65
2023-04-08T15:52:35.587Z,6.77
2023-04-08T15:55:24.075Z,5.80
2023-04-08T15:58:12.502Z,5.97
2023-04-08T16:01:01.267Z,5.10
2023-04-08T16:03:49.837Z,4.83
2023-04-08T16:06:39.721Z,3.63
2023-04-08T16:09:28.163Z,4.18
2023-04-08T16:12:16.566Z,3.37
2023-04-08T16:15:05.577Z,4.80
2023-04-08T16:17:54.164Z,3.53
2023-04-08T16:20:42.765Z,5.50
2023-04-08T16:23:34.093Z,5.80
2023-04-08T16:26:24.221Z,4.30
2023-04-08T16:29:12.661Z,5.78
2023-04-08T16:32:01.604Z,5.50
2023-04-08T16:34:50.035Z,4.40
2023-04-08T16:37:38.424Z,4.40
2023-04-08T16:40:28.403Z,5.65
2023-04-08T16:43:16.906Z,4.03
2023-04-08T16:46:12.318Z,3.97
2023-04-08T16:49:01.320Z,5.47
2023-04-08T16:51:49.856Z,7.18
2023-04-08T16:54:38.259Z,4.40
2023-04-08T16:57:28.430Z,4.43
2023-04-08T17:00:19.694Z,3.90
2023-04-08T17:03:09.546Z,5.25
2023-04-08T17:06:07.455Z,4.60
2023-04-08T17:08:56.239Z,4.35
2023-04-08T17:11:44.992Z,5.53
2023-04-08T17:14:34.918Z,6.43
2023-04-08T17:17:23.430Z,6.38
2023-04-08T17:20:12.915Z,4.95
2023-04-08T17:23:01.563Z,5.00
2023-04-08T17:25:50.063Z,3.75
2023-04-08T17:28:38.603Z,3.55
2023-04-08T17:31:28.653Z,3.92
2023-04-08T17:34:17.179Z,3.78
2023-04-08T17:37:06.308Z,4.10
2023-04-08T17:39:55.134Z,3.80
2023-04-08T17:42:43.824Z,4.50
2023-04-08T17:45:32.553Z,5.50
2023-04-08T17:48:22.726Z,4.65
2023-04-08T17:51:11.926Z,3.85
2023-04-08T17:54:00.684Z,4.32
2023-04-08T17:56:49.701Z,4.00
2023-04-08T17:59:38.472Z,4.47
2023-04-08T18:02:29.022Z,4.80
2023-04-08T18:05:19.352Z,5.18
2023-04-08T18:08:08.141Z,6.10
2023-04-08T18:10:56.832Z,5.65
2023-04-08T18:13:46.069Z,5.22
2023-04-08T18:16:34.847Z,5.30
2023-04-08T18:19:24.645Z,6.00
2023-04-08T18:22:14.805Z,4.45
2023-04-08T18:25:03.634Z,4.75
2023-04-08T18:27:52.404Z,5.03
2023-04-08T18:30:42.698Z,4.70
2023-04-08T18:33:31.486Z,4.40
2023-04-08T18:36:20.272Z,6.82
2023-04-08T18:39:10.468Z,6.63
2023-04-08T18:41:58.919Z,5.70
2023-04-08T18:44:47.450Z,4.05
2023-04-08T18:47:36.440Z,5.00
2023-04-08T18:50:25.161Z,3.85
2023-04-08T18:53:14.037Z,3.30
2023-04-08T18:56:04.769Z,3.05
2023-04-08T18:58:54.739Z,3.20
2023-04-08T19:01:43.983Z,3.10
2023-04-08T19:04:33.518Z,2.70
2023-04-08T19:07:22.138Z,2.72
2023-04-08T19:10:11.097Z,2.50
2023-04-08T19:13:00.978Z,2.90
2023-04-08T19:15:49.900Z,2.80
2023-04-08T19:18:38.470Z,3.35
2023-04-08T19:21:27.296Z,2.97
2023-04-08T19:24:15.850Z,3.25
2023-04-08T19:27:04.437Z,3.00
2023-04-08T19:29:54.224Z,3.30
2023-04-08T19:32:43.201Z,3.20
2023-04-08T19:35:31.833Z,2.65
2023-04-08T19:38:20.285Z,3.13
2023-04-08T19:41:08.790Z,3.20
2023-04-08T19:43:57.235Z,3.30
2023-04-08T19:46:47.107Z,2.75
2023-04-08T19:49:35.728Z,3.38
2023-04-08T19:52:24.138Z,3.40
2023-04-08T19:55:12.712Z,3.50
2023-04-08T19:58:01.621Z,4.00
2023-04-08T20:00:50.098Z,4.22
2023-04-08T20:03:40.339Z,3.75
2023-04-08T20:06:28.877Z,3.15
2023-04-08T20:09:17.273Z,3.50
2023-04-08T20:12:06.265Z,4.00
2023-04-08T20:14:54.763Z,3.70
2023-04-08T20:17:43.288Z,4.25
2023-04-08T20:20:33.128Z,4.20
2023-04-08T20:23:21.890Z,3.60
2023-04-08T20:26:10.320Z,3.47
2023-04-08T20:28:59.154Z,4.25
2023-04-08T20:31:47.853Z,4.30
2023-04-08T20:34:36.329Z,3.57
2023-04-08T20:37:26.345Z,3.85
2023-04-08T20:40:16.966Z,3.67
2023-04-08T20:43:06.551Z,3.88
2023-04-08T20:45:54.975Z,3.05
2023-04-08T20:48:43.426Z,3.35
2023-04-08T20:51:32.585Z,3.65
2023-04-08T20:54:22.633Z,3.40
2023-04-08T20:57:11.088Z,4.28
2023-04-08T20:59:59.634Z,4.13
2023-04-08T21:02:48.491Z,3.50
2023-04-08T21:05:38.769Z,3.70
2023-04-08T21:08:27.308Z,3.22
2023-04-08T21:11:17.399Z,3.20
2023-04-08T21:14:05.834Z,3.05
2023-04-08T21:16:54.203Z,3.60
2023-04-08T21:19:42.755Z,3.10
2023-04-08T21:22:32.280Z,3.53
2023-04-08T21:25:20.820Z,3.50
2023-04-08T21:28:10.686Z,3.13
2023-04-08T21:31:09.005Z,3.45
2023-04-08T21:33:57.550Z,3.00
2023-04-08T21:36:46.071Z,3.40
2023-04-08T21:39:34.478Z,3.60
2023-04-08T21:42:25.102Z,3.40
2023-04-08T21:45:15.428Z,3.92
2023-04-08T21:48:03.835Z,3.45
2023-04-08T21:50:53.142Z,3.23
2023-04-08T21:53:41.540Z,3.38
2023-04-08T21:56:30.031Z,4.38
2023-04-08T21:59:19.203Z,4.65
2023-04-08T22:02:11.253Z,4.53
2023-04-08T22:05:00.235Z,4.90
2023-04-08T22:07:48.792Z,3.83
2023-04-08T22:10:37.251Z,4.53
2023-04-08T22:13:25.929Z,4.50
2023-04-08T22:16:14.601Z,4.28
2023-04-08T22:19:04.406Z,4.80
2023-04-08T22:21:52.793Z,4.97
2023-04-08T22:24:41.453Z,4.45
2023-04-08T22:27:29.982Z,4.53
2023-04-08T22:30:18.488Z,4.28
2023-04-08T22:33:06.945Z,4.30
2023-04-08T22:35:58.107Z,4.03
2023-04-08T22:38:47.423Z,4.25
2023-04-08T22:41:36.034Z,4.18
2023-04-08T22:44:24.550Z,4.18
2023-04-08T22:47:13.296Z,4.00
2023-04-08T22:50:01.758Z,4.45
2023-04-08T22:52:51.612Z,4.10
2023-04-08T22:55:40.116Z,5.00
2023-04-08T22:58:28.556Z,4.90
2023-04-08T23:01:20.852Z,4.78
2023-04-08T23:04:09.472Z,5.20
2023-04-08T23:06:58.094Z,4.40
2023-04-08T23:09:47.864Z,4.85
2023-04-08T23:12:36.276Z,4.90
2023-04-08T23:15:24.853Z,5.63
2023-04-08T23:18:13.298Z,5.13
2023-04-08T23:21:01.686Z,5.50
2023-04-08T23:23:50.149Z,5.10
2023-04-08T23:26:39.932Z,4.95
2023-04-08T23:29:28.349Z,5.90
2023-04-08T23:32:16.808Z,5.00
2023-04-08T23:35:06.311Z,4.82
2023-04-08T23:37:54.812Z,5.18
2023-04-08T23:40:43.329Z,5.67
2023-04-08T23:43:33.188Z,5.13
2023-04-08T23:46:21.709Z,5.40
2023-04-08T23:49:10.194Z,5.00
2023-04-08T23:51:58.643Z,5.22
2023-04-08T23:54:51.129Z,6.03
2023-04-08T23:57:42.294Z,5.70
